Low Rocky Point, Australia
Current Conditions -  °F | °C
As of 12:30 PM on Wednesday 22 Oct 2014 (Local Time) from YMHB Reporting Station
Clear Clear  
Wind Chill: 73°   Ceiling: Unl
Heat Index: 73°   Visibility: 6mi
Dew Point: 41°   Wind: 9mph
Humidity: 31%   Direction: 330°NNW
Pressure: 29.97"   Gusts: NA
Location:  42.76°S, 145.54°E
Report Text: YMHB 220130Z 33008KT CAVOK 23/05 Q1015
Loading
Personal Weather Stations






























Interactive Weather Map New forecast layout! Learn more

10-Day Weather Forecast

Advertisements
Track Severe Weather on mobile